Time;durP1;ratioP1;P1;durP2;ratioP2;P2;SDS_P1;SDS_P2;PMS_P1;PMS_P2;Temp;Humidity;BMP_temperature;BMP_pressure;BME280_temperature;BME280_humidity;BME280_pressure;Samples;Min_cycle;Max_cycle;Signal;HPM_P1;HPM_P2
2024/01/10 00:01:17;;;;;;;52.00;20.60;;;;;;;-14.26;62.15;103112.31;107185;1257;107309;-63
2024/01/10 00:03:45;;;;;;;60.40;21.40;;;;;;;-14.28;62.52;103112.89;107172;1256;97861;-62
2024/01/10 00:06:14;;;;;;;59.30;20.70;;;;;;;-14.25;62.52;103115.30;107058;1261;97970;-63
2024/01/10 00:08:42;;;;;;;63.30;22.60;;;;;;;-14.31;62.27;103112.20;107178;1256;113053;-63
2024/01/10 00:11:10;;;;;;;64.60;23.20;;;;;;;-14.40;62.11;103112.64;107143;1256;108377;-63
2024/01/10 00:13:39;;;;;;;62.90;22.20;;;;;;;-14.46;62.20;103112.99;107161;1257;108182;-63
2024/01/10 00:16:07;;;;;;;57.30;21.30;;;;;;;-14.50;62.22;103114.52;107083;1256;97883;-64
2024/01/10 00:18:35;;;;;;;51.40;21.20;;;;;;;-14.52;62.19;103112.54;107171;1257;97837;-64
2024/01/10 00:21:04;;;;;;;51.70;21.50;;;;;;;-14.51;62.40;103113.59;107159;1256;110896;-63
2024/01/10 00:23:32;;;;;;;58.00;21.70;;;;;;;-14.53;62.53;103113.36;107186;1256;107291;-63
2024/01/10 00:26:01;;;;;;;59.40;20.70;;;;;;;-14.50;62.14;103114.00;107144;1257;108807;-62
2024/01/10 00:28:30;;;;;;;60.60;21.10;;;;;;;-14.54;61.91;103112.23;107172;1256;97954;-64
2024/01/10 00:30:58;;;;;;;55.30;22.40;;;;;;;-14.55;62.14;103119.08;107231;1260;98433;-63
2024/01/10 00:33:26;;;;;;;58.10;22.60;;;;;;;-14.57;62.29;103118.45;107251;1255;110975;-64
2024/01/10 00:35:55;;;;;;;59.40;21.60;;;;;;;-14.53;62.37;103115.95;107342;1259;107001;-63
2024/01/10 00:38:23;;;;;;;57.10;19.90;;;;;;;-14.48;62.30;103116.86;107297;1257;107489;-63
2024/01/10 00:40:51;;;;;;;57.00;20.10;;;;;;;-14.46;62.32;103116.96;107249;1256;97743;-63
2024/01/10 00:43:20;;;;;;;55.70;20.20;;;;;;;-14.50;62.02;103116.77;107121;1256;98479;-64
2024/01/10 00:45:48;;;;;;;64.10;21.30;;;;;;;-14.56;61.89;103106.45;107162;1256;111631;-63
2024/01/10 00:48:19;;;;;;;57.10;20.30;;;;;;;-14.58;61.80;103104.42;107295;1256;106194;-64
2024/01/10 00:50:48;;;;;;;56.50;21.10;;;;;;;-14.63;61.45;103104.88;107227;1257;108225;-63
2024/01/10 00:53:16;;;;;;;55.70;21.80;;;;;;;-14.60;61.78;103097.08;107284;1259;97941;-63
2024/01/10 00:55:44;;;;;;;59.70;21.90;;;;;;;-14.64;61.72;103094.51;107268;1256;98463;-63
2024/01/10 00:58:13;;;;;;;65.40;22.10;;;;;;;-14.69;61.78;103097.02;107274;1257;110513;-63
2024/01/10 01:00:41;;;;;;;58.80;21.80;;;;;;;-14.65;62.13;103093.42;107266;1256;107980;-63
2024/01/10 01:03:10;;;;;;;53.80;21.50;;;;;;;-14.56;62.19;103097.12;107263;1256;108035;-64
2024/01/10 01:05:38;;;;;;;64.00;22.40;;;;;;;-14.54;61.81;103095.52;107207;1259;97979;-66
2024/01/10 01:08:07;;;;;;;62.20;22.90;;;;;;;-14.57;61.71;103091.95;107196;1256;98365;-65
2024/01/10 01:10:35;;;;;;;57.00;23.20;;;;;;;-14.57;61.95;103089.18;107215;1256;111615;-64
2024/01/10 01:13:05;;;;;;;60.90;22.20;;;;;;;-14.56;61.97;103082.98;107220;1257;109055;-64
2024/01/10 01:15:33;;;;;;;50.40;20.60;;;;;;;-14.56;61.64;103080.25;107109;1257;108816;-62
2024/01/10 01:18:02;;;;;;;46.80;17.40;;;;;;;-14.61;61.17;103080.16;107238;1256;97858;-64
2024/01/10 01:20:31;;;;;;;54.30;19.40;;;;;;;-14.66;61.46;103079.95;107266;1257;98463;-64
2024/01/10 01:22:59;;;;;;;51.50;20.20;;;;;;;-14.64;61.67;103077.09;107276;1257;109113;-65
2024/01/10 01:25:28;;;;;;;53.10;20.80;;;;;;;-14.65;61.93;103070.99;107260;1255;108341;-63
2024/01/10 01:27:56;;;;;;;54.60;19.50;;;;;;;-14.74;61.60;103064.91;107258;1256;107971;-64
2024/01/10 01:30:25;;;;;;;51.60;21.20;;;;;;;-14.80;61.63;103066.48;107314;1257;97838;-64
2024/01/10 01:32:53;;;;;;;55.70;22.00;;;;;;;-14.85;61.55;103057.91;107208;1257;97716;-64
2024/01/10 01:35:22;;;;;;;58.60;20.80;;;;;;;-14.89;61.54;103058.92;107333;1256;111700;-64
2024/01/10 01:37:51;;;;;;;61.20;21.30;;;;;;;-14.93;61.72;103055.96;107322;1259;107631;-64
2024/01/10 01:40:20;;;;;;;53.20;21.90;;;;;;;-14.95;61.79;103047.61;107235;1256;107319;-62
2024/01/10 01:42:49;;;;;;;63.80;22.10;;;;;;;-14.93;61.82;103046.70;107173;1256;97849;-64
2024/01/10 01:45:17;;;;;;;59.10;21.30;;;;;;;-14.94;61.75;103038.00;107073;1256;97834;-64
2024/01/10 01:47:45;;;;;;;62.70;22.30;;;;;;;-14.94;61.55;103035.41;107176;1257;110945;-62
2024/01/10 01:50:14;;;;;;;62.40;24.10;;;;;;;-15.01;61.62;103033.31;107052;1257;108326;-64
2024/01/10 01:52:44;;;;;;;68.00;22.90;;;;;;;-15.04;61.51;103028.38;107253;1256;108439;-63
2024/01/10 01:55:13;;;;;;;61.30;21.30;;;;;;;-15.14;61.39;103025.05;107002;1257;97916;-64
2024/01/10 01:57:41;;;;;;;55.10;21.60;;;;;;;-15.17;61.56;103017.48;107257;1256;97877;-64
2024/01/10 02:00:10;;;;;;;62.10;21.40;;;;;;;-15.19;61.40;103018.42;107253;1257;112481;-64
2024/01/10 02:02:40;;;;;;;54.50;21.60;;;;;;;-15.32;61.15;103021.54;107243;1256;108687;-63
2024/01/10 02:05:09;;;;;;;69.70;22.30;;;;;;;-15.43;61.32;103020.13;107291;1259;107412;-64
2024/01/10 02:07:37;;;;;;;53.20;21.40;;;;;;;-15.42;61.45;103018.77;107276;1257;97999;-64
2024/01/10 02:10:06;;;;;;;54.40;20.10;;;;;;;-15.45;61.55;103013.41;107283;1255;97787;-64
2024/01/10 02:12:35;;;;;;;51.50;20.60;;;;;;;-15.43;61.57;103010.44;107301;1259;110634;-64
2024/01/10 02:15:05;;;;;;;49.90;18.80;;;;;;;-15.40;61.58;103008.89;107258;1254;108117;-64
2024/01/10 02:17:33;;;;;;;47.00;19.60;;;;;;;-15.39;61.46;103007.89;107232;1255;106777;-64
2024/01/10 02:20:17;;;;;;;52.30;18.40;;;;;;;-15.46;61.28;103008.23;107174;1256;97850;-63
2024/01/10 02:22:46;;;;;;;59.20;21.20;;;;;;;-15.55;61.42;103007.38;107148;1259;97857;-64
2024/01/10 02:25:14;;;;;;;60.80;21.60;;;;;;;-15.58;61.41;103006.52;107277;1256;111935;-65
2024/01/10 02:27:43;;;;;;;60.10;22.30;;;;;;;-15.58;61.68;103005.01;107284;1257;107950;-63
2024/01/10 02:30:11;;;;;;;58.50;21.60;;;;;;;-15.50;61.90;103001.45;107260;1256;108700;-64
2024/01/10 02:32:40;;;;;;;56.20;19.90;;;;;;;-15.43;61.95;103001.14;107258;1256;97856;-63
2024/01/10 02:35:09;;;;;;;59.10;20.40;;;;;;;-15.37;62.09;102994.73;107236;1259;97769;-64
2024/01/10 02:37:37;;;;;;;46.50;19.40;;;;;;;-15.30;62.02;102988.26;107245;1257;112256;-63
2024/01/10 02:40:06;;;;;;;62.60;20.80;;;;;;;-15.25;61.97;102988.66;107192;1256;109669;-64
2024/01/10 02:42:35;;;;;;;55.60;19.80;;;;;;;-15.23;61.90;102985.19;107301;1256;107434;-63
2024/01/10 02:45:04;;;;;;;53.50;18.90;;;;;;;-15.24;61.68;102982.71;107229;1257;97909;-64
2024/01/10 02:47:33;;;;;;;61.10;22.30;;;;;;;-15.26;61.70;102982.07;107245;1256;98399;-64
2024/01/10 02:50:01;;;;;;;68.40;23.10;;;;;;;-15.26;61.60;102982.46;107118;1257;112993;-64
2024/01/10 02:52:30;;;;;;;65.50;24.50;;;;;;;-15.31;61.32;102983.20;107344;1257;105593;-67
2024/01/10 02:54:59;;;;;;;60.80;21.60;;;;;;;-15.36;61.31;102979.70;107241;1257;107632;-64
2024/01/10 02:57:27;;;;;;;60.70;22.60;;;;;;;-15.40;61.31;102977.55;107261;1257;97736;-64
2024/01/10 02:59:55;;;;;;;60.50;22.80;;;;;;;-15.43;61.29;102975.34;107179;1256;97816;-64
2024/01/10 03:02:23;;;;;;;55.40;22.10;;;;;;;-15.46;61.13;102976.02;107269;1255;112258;-64
2024/01/10 03:04:52;;;;;;;62.40;22.60;;;;;;;-15.57;60.77;102974.75;107224;1256;108849;-64
2024/01/10 03:07:20;;;;;;;59.40;22.20;;;;;;;-15.64;60.97;102978.85;107231;1255;108724;-63
2024/01/10 03:09:48;;;;;;;62.20;21.60;;;;;;;-15.62;61.21;102972.63;107165;1259;98518;-64
2024/01/10 03:12:17;;;;;;;53.00;21.50;;;;;;;-15.62;61.38;102973.82;107236;1256;98395;-63
2024/01/10 03:14:45;;;;;;;50.60;19.60;;;;;;;-15.65;61.38;102969.67;107188;1256;111804;-63
2024/01/10 03:17:14;;;;;;;60.40;23.80;;;;;;;-15.68;61.36;102969.52;107239;1257;108379;-63
2024/01/10 03:19:43;;;;;;;51.80;20.70;;;;;;;-15.70;61.30;102966.46;107202;1256;107586;-63
2024/01/10 03:22:12;;;;;;;62.70;22.50;;;;;;;-15.70;61.49;102964.59;107164;1256;97836;-63
2024/01/10 03:24:40;;;;;;;63.20;23.40;;;;;;;-15.69;61.64;102962.76;107224;1257;98492;-63
2024/01/10 03:27:09;;;;;;;52.80;20.70;;;;;;;-15.66;61.71;102962.21;107265;1257;111423;-64
2024/01/10 03:29:37;;;;;;;59.90;21.90;;;;;;;-15.62;61.60;102959.35;107193;1256;108684;-63
2024/01/10 03:32:06;;;;;;;57.00;19.30;;;;;;;-15.60;61.46;102956.02;107208;1256;107861;-64
2024/01/10 03:34:35;;;;;;;64.70;26.20;;;;;;;-15.57;61.66;102954.28;107129;1257;97883;-64
2024/01/10 03:37:03;;;;;;;72.00;27.40;;;;;;;-15.52;61.51;102950.08;107261;1259;96930;-65
2024/01/10 03:39:32;;;;;;;70.50;27.60;;;;;;;-15.48;61.63;102951.16;107203;1256;111737;-64
2024/01/10 03:42:00;;;;;;;77.10;28.20;;;;;;;-15.42;62.02;102948.37;107232;1256;108181;-65
2024/01/10 03:44:28;;;;;;;82.90;29.30;;;;;;;-15.39;62.12;102943.88;107232;1256;108048;-63
2024/01/10 03:46:57;;;;;;;66.40;25.90;;;;;;;-15.35;62.27;102938.95;107223;1256;97752;-64
2024/01/10 03:49:25;;;;;;;65.40;26.40;;;;;;;-15.25;62.29;102940.66;107238;1258;98429;-63
2024/01/10 03:51:54;;;;;;;73.20;26.40;;;;;;;-15.18;62.24;102940.67;106957;1257;111446;-63
2024/01/10 03:54:22;;;;;;;62.60;25.70;;;;;;;-15.13;62.28;102939.06;107223;1256;107730;-65
2024/01/10 03:56:50;;;;;;;67.90;28.30;;;;;;;-15.09;62.37;102937.52;107242;1256;109153;-64
2024/01/10 03:59:18;;;;;;;68.00;25.60;;;;;;;-15.06;62.62;102934.59;107208;1256;97796;-63
2024/01/10 04:01:47;;;;;;;67.10;26.50;;;;;;;-14.99;62.53;102936.99;106933;1256;98417;-65
2024/01/10 04:04:15;;;;;;;51.70;21.60;;;;;;;-14.99;62.18;102936.87;107021;1256;111397;-65
2024/01/10 04:06:43;;;;;;;75.30;28.10;;;;;;;-15.02;62.13;102939.08;107050;1256;108218;-66
2024/01/10 04:09:12;;;;;;;83.00;27.00;;;;;;;-15.09;62.10;102930.30;107045;1256;107812;-64
2024/01/10 04:11:41;;;;;;;71.50;25.50;;;;;;;-15.13;62.07;102934.92;107221;1256;97832;-65
2024/01/10 04:14:09;;;;;;;73.30;26.90;;;;;;;-15.11;62.32;102930.58;107101;1256;97865;-63
2024/01/10 04:16:37;;;;;;;76.70;30.30;;;;;;;-15.07;62.71;102932.98;107249;1256;112573;-63
2024/01/10 04:19:06;;;;;;;74.70;29.20;;;;;;;-15.04;62.58;102928.65;107179;1257;107890;-64
2024/01/10 04:21:35;;;;;;;76.50;30.50;;;;;;;-14.99;62.69;102931.68;107192;1257;108588;-65
2024/01/10 04:24:04;;;;;;;69.60;29.20;;;;;;;-14.92;62.78;102931.19;107131;1261;98268;-64
2024/01/10 04:26:32;;;;;;;74.20;29.30;;;;;;;-14.90;62.63;102928.15;107095;1256;97808;-65
2024/01/10 04:29:00;;;;;;;83.60;28.50;;;;;;;-14.90;62.74;102928.48;107109;1255;111398;-65
2024/01/10 04:31:29;;;;;;;73.50;27.80;;;;;;;-14.90;62.64;102933.98;107233;1256;108982;-65
2024/01/10 04:33:57;;;;;;;71.00;27.80;;;;;;;-14.97;62.42;102926.27;107194;1255;108462;-63
2024/01/10 04:36:25;;;;;;;81.20;25.90;;;;;;;-15.11;62.49;102929.38;107182;1256;98012;-64
2024/01/10 04:38:54;;;;;;;50.30;19.40;;;;;;;-15.15;62.71;102925.35;107201;1256;98386;-64
2024/01/10 04:41:22;;;;;;;70.90;26.10;;;;;;;-15.18;62.66;102927.28;107218;1257;110821;-63
2024/01/10 04:43:51;;;;;;;64.30;24.90;;;;;;;-15.14;62.83;102930.39;107251;1256;108157;-63
2024/01/10 04:46:20;;;;;;;91.90;31.60;;;;;;;-15.12;63.09;102924.31;107189;1256;107648;-63
2024/01/10 04:48:48;;;;;;;78.50;29.20;;;;;;;-15.16;62.90;102926.50;107222;1257;97701;-63
2024/01/10 04:51:17;;;;;;;73.00;26.80;;;;;;;-15.16;62.91;102925.12;107243;1256;98389;-64
2024/01/10 04:53:46;;;;;;;74.20;30.40;;;;;;;-15.11;63.13;102926.56;107284;1256;111859;-64
2024/01/10 04:56:14;;;;;;;67.80;27.50;;;;;;;-15.05;63.23;102924.48;107276;1255;108593;-64
2024/01/10 04:58:42;;;;;;;72.90;27.50;;;;;;;-15.01;63.24;102923.66;107233;1257;108322;-64
2024/01/10 05:01:11;;;;;;;102.50;33.50;;;;;;;-14.95;63.31;102928.28;107257;1257;97842;-64
2024/01/10 05:03:40;;;;;;;72.20;27.20;;;;;;;-14.94;63.22;102929.19;107230;1256;98389;-64
2024/01/10 05:06:08;;;;;;;53.30;22.50;;;;;;;-15.02;63.07;102933.41;107151;1256;111662;-64
2024/01/10 05:08:37;;;;;;;65.80;26.50;;;;;;;-15.15;63.28;102936.22;107223;1261;108931;-63
2024/01/10 05:11:05;;;;;;;69.50;24.40;;;;;;;-15.33;63.21;102931.80;107111;1256;107896;-64
2024/01/10 05:13:34;;;;;;;71.90;27.40;;;;;;;-15.45;63.31;102933.77;107052;1256;97852;-64
2024/01/10 05:16:02;;;;;;;73.70;25.90;;;;;;;-15.44;63.77;102934.33;107255;1257;98958;-63
2024/01/10 05:18:31;;;;;;;96.70;32.20;;;;;;;-15.34;63.80;102940.86;107265;1257;111761;-63
2024/01/10 05:21:00;;;;;;;95.30;32.10;;;;;;;-15.25;63.96;102939.48;107216;1257;108490;-64
2024/01/10 05:23:29;;;;;;;74.20;25.90;;;;;;;-15.18;63.88;102939.14;107139;1257;107364;-63
2024/01/10 05:25:58;;;;;;;82.10;25.10;;;;;;;-15.13;63.76;102944.27;107259;1257;97839;-64
2024/01/10 05:28:27;;;;;;;72.60;24.60;;;;;;;-15.06;63.68;102946.30;107262;1257;98374;-64
2024/01/10 05:30:55;;;;;;;70.40;26.10;;;;;;;-15.01;63.73;102945.36;107250;1256;111966;-64
2024/01/10 05:33:24;;;;;;;70.90;26.50;;;;;;;-14.98;63.60;102940.68;107187;1257;107767;-64
2024/01/10 05:35:52;;;;;;;95.00;31.20;;;;;;;-14.97;63.42;102932.96;107181;1256;106984;-65
2024/01/10 05:38:21;;;;;;;76.20;26.00;;;;;;;-15.02;63.28;102929.27;107125;1262;99309;-64
2024/01/10 05:40:51;;;;;;;84.30;29.70;;;;;;;-15.03;63.42;102927.14;107222;1255;99201;-62
2024/01/10 05:43:21;;;;;;;76.20;27.90;;;;;;;-15.06;63.50;102925.83;107196;1256;112853;-63
2024/01/10 05:45:50;;;;;;;67.60;27.50;;;;;;;-15.08;63.60;102933.28;107097;1257;108032;-66
2024/01/10 05:48:18;;;;;;;66.60;26.40;;;;;;;-15.06;63.68;102933.89;107164;1257;107917;-62
2024/01/10 05:50:47;;;;;;;57.90;23.60;;;;;;;-15.01;63.48;102933.65;107133;1259;99307;-62
2024/01/10 05:53:16;;;;;;;71.80;25.90;;;;;;;-15.00;63.38;102934.38;107180;1256;99150;-63
2024/01/10 05:55:45;;;;;;;66.80;26.20;;;;;;;-15.02;63.65;102932.38;107191;1256;113069;-62
2024/01/10 05:58:14;;;;;;;63.20;24.80;;;;;;;-15.05;63.94;102933.27;107191;1257;108319;-63
2024/01/10 06:00:42;;;;;;;80.10;29.10;;;;;;;-15.17;63.62;102938.16;107125;1262;108000;-63
2024/01/10 06:03:11;;;;;;;62.30;24.30;;;;;;;-15.23;63.70;102947.30;107182;1256;99189;-66
2024/01/10 06:05:39;;;;;;;66.40;24.80;;;;;;;-15.22;63.84;102947.87;106972;1256;99199;-64
2024/01/10 06:08:08;;;;;;;69.20;22.70;;;;;;;-15.16;63.92;102947.48;107166;1257;112673;-64
2024/01/10 06:10:36;;;;;;;49.60;20.30;;;;;;;-15.14;63.68;102945.03;107135;1256;108905;-64
2024/01/10 06:13:05;;;;;;;56.60;20.40;;;;;;;-15.23;63.39;102945.43;107122;1261;108671;-64
2024/01/10 06:15:34;;;;;;;53.00;21.80;;;;;;;-15.28;63.19;102941.54;107160;1256;99283;-65
2024/01/10 06:18:03;;;;;;;46.90;19.90;;;;;;;-15.27;63.34;102946.58;107165;1261;99264;-64
2024/01/10 06:20:32;;;;;;;56.50;23.10;;;;;;;-15.19;63.70;102945.61;106972;1256;112945;-64
2024/01/10 06:23:01;;;;;;;59.50;24.80;;;;;;;-15.13;63.61;102946.30;106972;1262;107700;-64
2024/01/10 06:25:29;;;;;;;60.00;24.50;;;;;;;-15.10;63.68;102940.05;107177;1257;108266;-65
2024/01/10 06:27:58;;;;;;;66.40;26.60;;;;;;;-15.08;63.41;102938.96;107052;1257;99097;-65
2024/01/10 06:30:26;;;;;;;56.50;22.40;;;;;;;-15.00;63.41;102939.00;107026;1256;99438;-65
2024/01/10 06:32:55;;;;;;;64.30;25.30;;;;;;;-14.95;63.23;102935.34;107030;1256;114362;-63
2024/01/10 06:35:23;;;;;;;53.30;21.00;;;;;;;-14.93;63.00;102941.79;107093;1256;106827;-61
2024/01/10 06:37:52;;;;;;;65.10;23.00;;;;;;;-14.93;62.63;102947.47;107162;1257;108376;-62
2024/01/10 06:40:21;;;;;;;66.40;26.60;;;;;;;-14.89;62.88;102946.13;107155;1256;99096;-63
2024/01/10 06:42:50;;;;;;;67.50;29.70;;;;;;;-14.81;63.15;102947.04;107172;1261;99282;-63
2024/01/10 06:45:19;;;;;;;72.30;26.10;;;;;;;-14.77;62.88;102941.58;107206;1255;113406;-65
2024/01/10 06:47:48;;;;;;;67.20;26.70;;;;;;;-14.70;63.11;102943.10;107197;1257;108193;-63
2024/01/10 06:50:19;;;;;;;82.60;29.70;;;;;;;-14.69;62.68;102943.70;107161;1258;107430;-65
2024/01/10 06:52:48;;;;;;;73.00;28.50;;;;;;;-14.68;62.65;102941.48;107173;1256;99278;-64
2024/01/10 06:55:16;;;;;;;84.80;30.20;;;;;;;-14.61;62.99;102933.21;107178;1257;99832;-63
2024/01/10 06:57:45;;;;;;;71.90;27.10;;;;;;;-14.57;62.82;102931.17;107233;1257;112530;-65
2024/01/10 07:00:14;;;;;;;69.80;28.10;;;;;;;-14.59;62.69;102924.19;107179;1256;108842;-64
2024/01/10 07:02:42;;;;;;;73.60;30.10;;;;;;;-14.61;62.71;102919.94;107183;1256;107011;-65
2024/01/10 07:05:10;;;;;;;76.00;29.90;;;;;;;-14.53;63.12;102923.25;107157;1259;99217;-65
2024/01/10 07:07:39;;;;;;;70.30;28.90;;;;;;;-14.41;63.35;102927.30;107192;1257;99085;-64
2024/01/10 07:10:08;;;;;;;70.20;27.60;;;;;;;-14.28;63.24;102926.89;107193;1259;113532;-65
2024/01/10 07:12:37;;;;;;;66.70;28.70;;;;;;;-14.18;63.27;102929.27;107291;1257;108647;-64
2024/01/10 07:15:06;;;;;;;71.90;30.00;;;;;;;-14.02;63.33;102926.40;107211;1257;108089;-65
2024/01/10 07:17:34;;;;;;;143.20;45.80;;;;;;;-13.85;63.76;102920.11;107224;1256;99204;-66
2024/01/10 07:20:03;;;;;;;78.90;30.60;;;;;;;-13.68;63.61;102912.60;107107;1257;99343;-65
2024/01/10 07:22:32;;;;;;;71.80;29.40;;;;;;;-13.52;63.47;102909.34;107210;1261;113028;-65
2024/01/10 07:25:01;;;;;;;77.70;31.10;;;;;;;-13.42;63.55;102912.55;107247;1257;108271;-64
2024/01/10 07:27:29;;;;;;;67.30;29.10;;;;;;;-13.30;63.69;102909.96;107255;1257;107224;-65
2024/01/10 07:29:57;;;;;;;72.30;29.70;;;;;;;-13.15;63.92;102906.46;107196;1257;99208;-65
2024/01/10 07:32:26;;;;;;;79.30;32.70;;;;;;;-13.00;64.01;102898.83;107311;1257;99175;-63
2024/01/10 07:34:54;;;;;;;74.70;29.90;;;;;;;-12.94;63.15;102892.02;107200;1257;112629;-66
2024/01/10 07:37:23;;;;;;;74.20;31.90;;;;;;;-12.85;63.80;102891.31;107228;1257;107895;-64
2024/01/10 07:39:51;;;;;;;79.60;30.70;;;;;;;-12.71;64.00;102889.48;107258;1257;108275;-66
2024/01/10 07:42:19;;;;;;;79.80;31.20;;;;;;;-12.55;63.95;102893.42;107168;1257;99240;-64
2024/01/10 07:44:47;;;;;;;78.00;31.40;;;;;;;-12.42;63.95;102890.85;107261;1257;99070;-64
2024/01/10 07:47:18;;;;;;;80.50;31.50;;;;;;;-12.30;63.71;102890.98;107206;1257;112497;-66
2024/01/10 07:49:47;;;;;;;72.50;31.30;;;;;;;-12.19;63.10;102891.58;107242;1259;108808;-64
2024/01/10 07:52:19;;;;;;;71.30;28.30;;;;;;;-12.19;62.39;102895.22;107283;1259;108723;-64
2024/01/10 07:54:51;;;;;;;71.10;26.80;;;;;;;-12.21;61.93;102890.96;107248;1257;99179;-64
2024/01/10 07:57:19;;;;;;;64.20;29.40;;;;;;;-12.22;61.84;102889.38;107251;1254;99207;-65
2024/01/10 07:59:47;;;;;;;74.00;31.20;;;;;;;-12.17;62.22;102882.30;107285;1256;112757;-64
2024/01/10 08:02:16;;;;;;;73.60;31.80;;;;;;;-11.99;62.48;102884.90;107270;1256;107757;-66
2024/01/10 08:04:45;;;;;;;55.30;25.70;;;;;;;-11.80;62.85;102887.68;107271;1259;106875;-65
2024/01/10 08:07:14;;;;;;;68.90;28.90;;;;;;;-11.68;61.71;102885.70;107181;1256;99864;-64
2024/01/10 08:09:42;;;;;;;60.90;25.70;;;;;;;-11.57;62.26;102888.34;107192;1260;99842;-65
2024/01/10 08:12:11;;;;;;;61.00;25.60;;;;;;;-11.53;61.31;102884.55;107216;1257;112611;-65
2024/01/10 08:14:40;;;;;;;58.20;23.80;;;;;;;-11.55;60.21;102881.69;107274;1257;108332;-64
2024/01/10 08:17:08;;;;;;;66.50;27.20;;;;;;;-11.54;60.45;102879.98;107216;1257;108684;-65
2024/01/10 08:19:37;;;;;;;55.50;26.00;;;;;;;-11.49;60.89;102878.47;107213;1257;99275;-63
2024/01/10 08:22:07;;;;;;;62.10;27.20;;;;;;;-11.35;60.83;102880.66;107241;1257;99106;-65
2024/01/10 08:24:36;;;;;;;62.00;29.10;;;;;;;-11.26;60.67;102880.82;107242;1256;112225;-65
2024/01/10 08:27:04;;;;;;;60.80;27.90;;;;;;;-11.13;60.99;102883.89;107216;1258;108158;-66
2024/01/10 08:29:33;;;;;;;61.60;27.60;;;;;;;-10.87;61.18;102889.77;107248;1257;107195;-64
2024/01/10 08:32:03;;;;;;;65.20;27.80;;;;;;;-10.51;60.86;102887.52;107243;1254;100083;-66
2024/01/10 08:34:33;;;;;;;60.40;27.50;;;;;;;-9.96;60.22;102875.50;107285;1259;99733;-64
2024/01/10 08:37:01;;;;;;;59.50;28.50;;;;;;;-9.29;59.21;102872.38;107225;1257;114012;-63
2024/01/10 08:39:30;;;;;;;66.60;29.50;;;;;;;-8.63;58.11;102871.83;107238;1257;109044;-64
2024/01/10 08:41:58;;;;;;;61.10;29.20;;;;;;;-8.09;56.36;102871.15;107223;1257;108578;-66
2024/01/10 08:44:27;;;;;;;66.30;30.50;;;;;;;-7.69;54.14;102862.46;106705;1259;674671;-66
2024/01/10 08:46:55;;;;;;;60.60;30.90;;;;;;;-7.41;52.95;102857.27;107215;1257;99733;-66
2024/01/10 08:49:24;;;;;;;65.60;29.60;;;;;;;-7.14;52.23;102859.89;107182;1257;113197;-66
2024/01/10 08:51:53;;;;;;;64.50;29.50;;;;;;;-7.00;50.84;102857.17;107087;1256;108152;-66
2024/01/10 08:54:22;;;;;;;67.50;33.00;;;;;;;-6.90;49.94;102860.14;107226;1257;107842;-65
2024/01/10 08:56:51;;;;;;;72.70;30.60;;;;;;;-6.68;49.71;102859.82;107256;1257;99294;-64
2024/01/10 08:59:19;;;;;;;56.70;27.50;;;;;;;-6.34;48.92;102854.94;107233;1259;99141;-64
2024/01/10 09:01:47;;;;;;;64.50;30.10;;;;;;;-6.26;48.37;102844.92;107265;1257;112222;-65
2024/01/10 09:04:15;;;;;;;60.10;28.90;;;;;;;-5.98;48.58;102847.06;107308;1257;106548;-66
2024/01/10 09:06:44;;;;;;;53.80;26.70;;;;;;;-5.68;47.69;102848.32;107279;1259;107740;-65
2024/01/10 09:09:13;;;;;;;53.80;28.90;;;;;;;-5.35;47.33;102846.59;107256;1257;99205;-64
2024/01/10 09:11:41;;;;;;;62.80;28.10;;;;;;;-5.05;47.53;102841.32;107303;1257;99071;-65
2024/01/10 09:14:13;;;;;;;53.60;28.50;;;;;;;-4.57;47.48;102836.83;107276;1259;112873;-64
2024/01/10 09:16:41;;;;;;;49.40;26.90;;;;;;;-4.05;47.11;102831.93;107279;1257;108580;-65
2024/01/10 09:19:10;;;;;;;55.80;27.20;;;;;;;-3.71;45.84;102820.52;107246;1257;108608;-65
2024/01/10 09:21:40;;;;;;;52.30;27.70;;;;;;;-3.27;46.08;102821.88;107287;1259;99192;-64
2024/01/10 09:24:11;;;;;;;57.80;29.00;;;;;;;-3.13;44.01;102816.30;107346;1254;99647;-66
2024/01/10 09:26:56;;;;;;;54.90;29.00;;;;;;;-2.80;44.44;102809.48;107313;1256;113314;-64
2024/01/10 09:29:25;;;;;;;60.30;32.50;;;;;;;-2.46;44.60;102809.46;107207;1257;108141;-68
2024/01/10 09:31:54;;;;;;;63.40;33.60;;;;;;;-1.91;45.53;102804.92;107259;1259;107502;-64
2024/01/10 09:34:23;;;;;;;64.30;35.00;;;;;;;-1.37;45.60;102800.80;107210;1259;99167;-66
2024/01/10 09:36:52;;;;;;;71.00;34.80;;;;;;;-1.19;43.75;102797.70;107280;1259;99064;-64
2024/01/10 09:39:20;;;;;;;69.50;32.10;;;;;;;-1.02;41.64;102795.11;107295;1258;113663;-64
2024/01/10 09:41:50;;;;;;;63.70;35.30;;;;;;;-0.90;42.53;102790.98;107292;1255;108275;-66
2024/01/10 09:44:21;;;;;;;60.00;32.70;;;;;;;-0.85;40.93;102793.58;107330;1257;109232;-65
2024/01/10 09:46:54;;;;;;;56.00;30.00;;;;;;;-0.74;41.72;102792.25;107210;1259;99093;-64
2024/01/10 09:49:24;;;;;;;53.40;29.00;;;;;;;-0.58;40.60;102795.29;107300;1259;99291;-63
2024/01/10 09:52:08;;;;;;;55.70;32.40;;;;;;;-0.27;41.37;102789.34;107250;1259;112499;-66
2024/01/10 09:54:40;;;;;;;49.70;28.20;;;;;;;-0.25;40.68;102792.31;107247;1260;108047;-64
2024/01/10 09:57:09;;;;;;;50.90;28.10;;;;;;;0.21;41.72;102787.02;107207;1260;108178;-64
2024/01/10 09:59:38;;;;;;;52.40;28.90;;;;;;;0.40;40.15;102787.48;107267;1260;99316;-65
2024/01/10 10:02:06;;;;;;;48.90;27.30;;;;;;;0.52;40.48;102783.61;107247;1259;99077;-66
2024/01/10 10:04:38;;;;;;;48.10;30.00;;;;;;;0.65;38.87;102776.89;107260;1257;111975;-63
2024/01/10 10:07:06;;;;;;;49.60;27.40;;;;;;;0.73;39.77;102775.19;107268;1257;107644;-66
2024/01/10 10:09:35;;;;;;;49.00;27.30;;;;;;;0.99;39.22;102768.59;107223;1260;106530;-64
2024/01/10 10:12:04;;;;;;;51.00;28.50;;;;;;;0.90;37.42;102767.16;107262;1256;99180;-65
2024/01/10 10:14:33;;;;;;;46.90;27.80;;;;;;;0.79;37.88;102757.95;107267;1259;99768;-64
2024/01/10 10:17:15;;;;;;;47.80;28.90;;;;;;;0.51;36.68;102752.38;107221;1258;112951;-64
2024/01/10 10:19:44;;;;;;;49.40;27.00;;;;;;;0.72;38.56;102743.93;107276;1258;106968;-64
2024/01/10 10:22:13;;;;;;;51.40;29.00;;;;;;;1.49;40.89;102746.52;107204;1257;107629;-64
2024/01/10 10:24:44;;;;;;;42.80;25.50;;;;;;;2.37;40.28;102741.38;107242;1261;99205;-64
2024/01/10 10:27:13;;;;;;;49.50;26.10;;;;;;;2.85;39.04;102739.39;107290;1258;99187;-63
2024/01/10 10:29:41;;;;;;;45.70;26.40;;;;;;;3.27;38.67;102732.65;107095;1260;113377;-64
2024/01/10 10:32:15;;;;;;;42.10;24.80;;;;;;;3.51;36.77;102731.98;107259;1260;108478;-64
2024/01/10 10:34:44;;;;;;;48.10;25.50;;;;;;;3.36;36.34;102730.09;107232;1258;108314;-65
2024/01/10 10:37:12;;;;;;;42.10;26.90;;;;;;;3.57;37.66;102722.42;107257;1257;99221;-65
2024/01/10 10:39:41;;;;;;;46.20;26.40;;;;;;;3.89;37.47;102719.40;107285;1260;99080;-64
2024/01/10 10:42:11;;;;;;;45.10;25.50;;;;;;;3.89;36.08;102714.27;107247;1259;112652;-64
2024/01/10 10:44:43;;;;;;;42.90;26.20;;;;;;;4.27;37.24;102708.15;107233;1261;107034;-64
2024/01/10 10:47:13;;;;;;;44.90;24.00;;;;;;;4.19;34.93;102705.20;107267;1257;106996;-62
2024/01/10 10:49:51;;;;;;;35.30;23.70;;;;;;;3.98;34.32;102709.39;107292;1257;99205;-64
2024/01/10 10:52:23;;;;;;;43.30;25.40;;;;;;;4.06;35.42;102702.94;107319;1258;99085;-63
2024/01/10 10:54:56;;;;;;;40.00;25.00;;;;;;;4.29;35.68;102701.19;107270;1258;113380;-63
2024/01/10 10:57:25;;;;;;;;;;;;;;;4.74;36.13;102699.20;107330;1260;108300;-62
2024/01/10 10:59:57;;;;;;;40.90;24.10;;;;;;;5.27;35.88;102692.07;107093;1259;108925;-66